createdAt,value
2023-01-10T00:00:15.552Z,3.92
2023-01-10T00:01:37.522Z,3.93
2023-01-10T00:02:39.747Z,3.93
2023-01-10T00:03:41.604Z,3.95
2023-01-10T00:04:43.377Z,3.95
2023-01-10T00:05:45.483Z,3.96
2023-01-10T00:06:47.580Z,3.96
2023-01-10T00:07:49.411Z,3.96
2023-01-10T00:08:51.213Z,3.96
2023-01-10T00:09:53.013Z,3.95
2023-01-10T00:10:55.162Z,3.94
2023-01-10T00:12:15.885Z,3.93
2023-01-10T00:13:24.016Z,3.92
2023-01-10T00:14:29.157Z,3.91
2023-01-10T00:15:36.037Z,3.90
2023-01-10T00:16:39.484Z,3.89
2023-01-10T00:17:41.367Z,3.88
2023-01-10T00:18:43.220Z,3.89
2023-01-10T00:19:45.148Z,3.89
2023-01-10T00:20:51.992Z,3.88
2023-01-10T00:21:55.150Z,3.87
2023-01-10T00:22:57.639Z,3.86
2023-01-10T00:24:16.885Z,3.83
2023-01-10T00:25:21.729Z,3.82
2023-01-10T00:26:23.693Z,3.81
2023-01-10T00:27:25.473Z,3.80
2023-01-10T00:28:27.484Z,3.80
2023-01-10T00:29:34.822Z,3.80
2023-01-10T00:30:40.936Z,3.79
2023-01-10T00:31:42.891Z,3.79
2023-01-10T00:32:45.972Z,3.77
2023-01-10T00:33:48.997Z,3.75
2023-01-10T00:34:50.772Z,3.74
2023-01-10T00:35:52.645Z,3.73
2023-01-10T00:36:54.508Z,3.71
2023-01-10T00:38:01.414Z,3.70
2023-01-10T00:39:04.464Z,3.69
2023-01-10T00:40:09.159Z,3.68
2023-01-10T00:41:31.312Z,3.66
2023-01-10T00:42:51.752Z,3.65
2023-01-10T00:43:59.331Z,3.65
2023-01-10T00:45:01.118Z,3.66
2023-01-10T00:46:03.317Z,3.67
2023-01-10T00:47:05.122Z,3.67
2023-01-10T00:48:06.980Z,3.67
2023-01-10T00:49:08.782Z,3.67
2023-01-10T00:50:11.963Z,3.67
2023-01-10T00:51:13.759Z,3.65
2023-01-10T00:52:15.493Z,3.65
2023-01-10T00:53:17.344Z,3.65
2023-01-10T00:54:19.542Z,3.65
2023-01-10T00:55:21.307Z,3.64
2023-01-10T00:56:23.222Z,3.64
2023-01-10T00:57:25.134Z,3.62
2023-01-10T00:58:26.919Z,3.63
2023-01-10T00:59:29.562Z,3.64
2023-01-10T01:00:31.532Z,3.63
2023-01-10T01:01:33.885Z,3.63
2023-01-10T01:02:36.519Z,3.63
2023-01-10T01:03:38.500Z,3.64
2023-01-10T01:04:40.356Z,3.62
2023-01-10T01:05:47.652Z,3.62
2023-01-10T01:06:51.044Z,3.61
2023-01-10T01:07:53.054Z,3.61
2023-01-10T01:08:54.948Z,3.60
2023-01-10T01:10:15.883Z,3.60
2023-01-10T01:11:18.092Z,3.62
2023-01-10T01:12:20.160Z,3.62
2023-01-10T01:13:22.303Z,3.64
2023-01-10T01:14:25.028Z,3.64
2023-01-10T01:15:27.854Z,3.66
2023-01-10T01:16:29.707Z,3.67
2023-01-10T01:17:31.719Z,3.68
2023-01-10T01:18:34.208Z,3.68
2023-01-10T01:19:36.001Z,3.66
2023-01-10T01:20:41.653Z,3.66
2023-01-10T01:21:43.518Z,3.66
2023-01-10T01:22:45.761Z,3.66
2023-01-10T01:23:47.747Z,3.66
2023-01-10T01:24:49.709Z,3.66
2023-01-10T01:25:53.220Z,3.67
2023-01-10T01:26:54.987Z,3.67
2023-01-10T01:27:56.779Z,3.69
2023-01-10T01:28:58.612Z,3.69
2023-01-10T01:30:01.568Z,3.70
2023-01-10T01:31:08.426Z,3.71
2023-01-10T01:32:10.542Z,3.71
2023-01-10T01:33:12.830Z,3.71
2023-01-10T01:34:14.849Z,3.70
2023-01-10T01:35:17.895Z,3.71
2023-01-10T01:36:20.238Z,3.71
2023-01-10T01:37:22.023Z,3.71
2023-01-10T01:38:23.930Z,3.70
2023-01-10T01:39:25.818Z,3.69
2023-01-10T01:40:27.590Z,3.69
2023-01-10T01:41:48.075Z,3.69
2023-01-10T01:42:49.946Z,3.67
2023-01-10T01:44:17.813Z,3.66
2023-01-10T01:45:25.576Z,3.66
2023-01-10T01:46:28.381Z,3.66
2023-01-10T01:47:30.529Z,3.66
2023-01-10T01:48:39.903Z,3.65
2023-01-10T01:49:45.973Z,3.65
2023-01-10T01:51:07.682Z,3.63
2023-01-10T01:52:20.759Z,3.61
2023-01-10T01:53:45.018Z,3.60
2023-01-10T01:54:47.277Z,3.59
2023-01-10T01:55:54.243Z,3.60
2023-01-10T01:57:04.524Z,3.58
2023-01-10T01:58:14.035Z,3.58
2023-01-10T01:59:27.701Z,3.57
2023-01-10T02:00:29.587Z,3.57
2023-01-10T02:01:34.076Z,3.57
2023-01-10T02:02:57.640Z,3.57
2023-01-10T02:04:29.877Z,3.58
2023-01-10T02:05:35.871Z,3.57
2023-01-10T02:06:38.368Z,3.58
2023-01-10T02:07:46.071Z,3.59
2023-01-10T02:08:59.122Z,3.60
2023-01-10T02:10:19.147Z,3.61
2023-01-10T02:11:21.142Z,3.59
2023-01-10T02:12:27.545Z,3.57
2023-01-10T02:13:33.687Z,3.56
2023-01-10T02:14:37.186Z,3.55
2023-01-10T02:15:39.317Z,3.52
2023-01-10T02:16:41.283Z,3.50
2023-01-10T02:17:44.030Z,3.50
2023-01-10T02:18:46.310Z,3.49
2023-01-10T02:19:57.200Z,3.48
2023-01-10T02:21:28.741Z,3.46
2023-01-10T02:22:30.496Z,3.44
2023-01-10T02:24:07.326Z,3.43
2023-01-10T02:25:19.790Z,3.41
2023-01-10T02:26:43.732Z,3.41
2023-01-10T02:27:45.669Z,3.38
2023-01-10T02:29:00.393Z,3.37
2023-01-10T02:30:29.619Z,3.34
2023-01-10T02:32:09.179Z,3.31
2023-01-10T02:33:26.125Z,3.29
2023-01-10T02:35:03.232Z,3.28
2023-01-10T02:36:11.201Z,3.26
2023-01-10T02:37:30.562Z,3.26
2023-01-10T02:38:47.883Z,3.24
2023-01-10T02:40:13.926Z,3.23
2023-01-10T02:41:36.637Z,3.22
2023-01-10T02:43:10.336Z,3.19
2023-01-10T02:44:38.646Z,3.16
2023-01-10T02:45:58.249Z,3.15
2023-01-10T02:47:04.438Z,3.14
2023-01-10T02:48:06.781Z,3.13
2023-01-10T02:49:08.613Z,3.13
2023-01-10T02:50:44.274Z,3.13
2023-01-10T02:51:46.315Z,3.13
2023-01-10T02:52:48.311Z,3.13
2023-01-10T02:54:14.271Z,3.11
2023-01-10T02:55:16.997Z,3.11
2023-01-10T02:56:21.852Z,3.11
2023-01-10T02:57:35.669Z,3.08
2023-01-10T02:59:05.164Z,3.08
2023-01-10T03:00:49.871Z,3.07
2023-01-10T03:02:15.844Z,3.06
2023-01-10T03:03:20.528Z,3.02
2023-01-10T03:04:43.340Z,3.02
2023-01-10T03:05:57.511Z,3.03
2023-01-10T03:07:21.272Z,3.03
2023-01-10T03:08:43.461Z,3.02
2023-01-10T03:10:12.984Z,3.02
2023-01-10T03:11:15.387Z,3.00
2023-01-10T03:12:48.542Z,2.99
2023-01-10T03:14:01.092Z,2.98
2023-01-10T03:15:08.212Z,2.98
2023-01-10T03:16:19.306Z,2.98
2023-01-10T03:17:25.946Z,2.99
2023-01-10T03:18:39.402Z,3.00
2023-01-10T03:19:49.912Z,3.01
2023-01-10T03:20:55.990Z,3.02
2023-01-10T03:22:02.727Z,3.03
2023-01-10T03:23:07.075Z,3.04
2023-01-10T03:24:20.900Z,3.03
2023-01-10T03:25:34.126Z,3.01
2023-01-10T03:27:07.419Z,2.99
2023-01-10T03:28:32.591Z,2.99
2023-01-10T03:29:44.786Z,2.98
2023-01-10T03:31:03.915Z,2.98
2023-01-10T03:32:12.207Z,2.99
2023-01-10T03:33:21.187Z,3.01
2023-01-10T03:34:25.585Z,3.04
2023-01-10T03:35:37.312Z,3.05
2023-01-10T03:36:43.170Z,3.05
2023-01-10T03:37:59.015Z,3.04
2023-01-10T03:39:30.036Z,3.02
2023-01-10T03:40:56.127Z,3.02
2023-01-10T03:42:02.862Z,3.02
2023-01-10T03:43:43.845Z,3.01
2023-01-10T03:45:01.130Z,3.03
2023-01-10T03:46:11.035Z,3.04
2023-01-10T03:47:49.259Z,3.05
2023-01-10T03:48:51.574Z,3.06
2023-01-10T03:50:03.095Z,3.08
2023-01-10T03:51:08.113Z,3.08
2023-01-10T03:52:15.960Z,3.08
2023-01-10T03:53:17.971Z,3.09
2023-01-10T03:54:20.213Z,3.09
2023-01-10T03:55:27.924Z,3.10
2023-01-10T03:56:29.996Z,3.10
2023-01-10T03:57:32.521Z,3.11
2023-01-10T03:58:34.440Z,3.12
2023-01-10T03:59:36.240Z,3.13
2023-01-10T04:00:39.631Z,3.14
2023-01-10T04:01:41.498Z,3.14
2023-01-10T04:02:44.590Z,3.14
2023-01-10T04:03:46.561Z,3.13
2023-01-10T04:04:48.463Z,3.13
2023-01-10T04:05:50.348Z,3.12
2023-01-10T04:06:52.139Z,3.11
2023-01-10T04:07:53.978Z,3.10
2023-01-10T04:08:56.032Z,3.09
2023-01-10T04:09:58.028Z,3.08
2023-01-10T04:10:59.881Z,3.06
2023-01-10T04:12:01.931Z,3.06
2023-01-10T04:13:05.172Z,3.04
2023-01-10T04:14:07.090Z,3.02
2023-01-10T04:15:09.747Z,3.01
2023-01-10T04:16:12.120Z,3.01
2023-01-10T04:17:16.738Z,2.99
2023-01-10T04:18:19.270Z,2.97
2023-01-10T04:19:21.478Z,2.96
2023-01-10T04:20:26.559Z,2.94
2023-01-10T04:21:28.633Z,2.93
2023-01-10T04:22:30.453Z,2.93
2023-01-10T04:23:32.892Z,2.92
2023-01-10T04:24:35.069Z,2.91
2023-01-10T04:25:37.065Z,2.91
2023-01-10T04:27:09.724Z,2.92
2023-01-10T04:28:11.765Z,2.93
2023-01-10T04:29:13.717Z,2.94
2023-01-10T04:30:16.407Z,2.95
2023-01-10T04:31:18.211Z,2.96
2023-01-10T04:32:20.276Z,2.95
2023-01-10T04:33:22.493Z,2.95
2023-01-10T04:34:24.342Z,2.94
2023-01-10T04:35:26.517Z,2.94
2023-01-10T04:36:28.617Z,2.93
2023-01-10T04:37:30.621Z,2.92
2023-01-10T04:38:32.727Z,2.93
2023-01-10T04:39:34.563Z,2.93
2023-01-10T04:40:36.347Z,2.94
2023-01-10T04:41:38.731Z,2.95
2023-01-10T04:42:40.614Z,2.94
2023-01-10T04:43:42.747Z,2.94
2023-01-10T04:44:44.769Z,2.95
2023-01-10T04:45:46.676Z,2.93
2023-01-10T04:46:48.556Z,2.92
2023-01-10T04:47:56.124Z,2.92
2023-01-10T04:48:58.926Z,2.91
2023-01-10T04:50:00.748Z,2.90
2023-01-10T04:51:02.890Z,2.90
2023-01-10T04:52:04.924Z,2.89
2023-01-10T04:53:07.096Z,2.89
2023-01-10T04:54:09.587Z,2.89
2023-01-10T04:55:11.460Z,2.90
2023-01-10T04:56:20.544Z,2.91
2023-01-10T04:57:22.332Z,2.90
2023-01-10T04:58:24.101Z,2.90
2023-01-10T04:59:25.934Z,2.89
2023-01-10T05:00:27.804Z,2.88
2023-01-10T05:01:29.908Z,2.88
2023-01-10T05:02:31.982Z,2.87
2023-01-10T05:03:33.951Z,2.88
2023-01-10T05:04:35.823Z,2.89
2023-01-10T05:05:37.765Z,2.90
2023-01-10T05:06:40.350Z,2.90
2023-01-10T05:07:46.622Z,2.92
2023-01-10T05:08:48.901Z,2.93
2023-01-10T05:09:50.759Z,2.94
2023-01-10T05:10:52.759Z,2.95
2023-01-10T05:11:55.175Z,2.96
2023-01-10T05:12:56.983Z,2.97
2023-01-10T05:13:58.790Z,2.97
2023-01-10T05:15:00.941Z,2.97
2023-01-10T05:16:03.196Z,2.97
2023-01-10T05:17:05.330Z,2.98
2023-01-10T05:18:07.155Z,2.98
2023-01-10T05:19:09.330Z,2.98
2023-01-10T05:20:13.603Z,2.97
2023-01-10T05:21:15.795Z,2.98
2023-01-10T05:22:17.758Z,2.99
2023-01-10T05:23:19.772Z,3.00
2023-01-10T05:24:22.528Z,3.00
2023-01-10T05:25:24.438Z,3.02
2023-01-10T05:26:26.269Z,3.02
2023-01-10T05:27:28.136Z,3.02
2023-01-10T05:28:30.079Z,3.01
2023-01-10T05:29:34.214Z,2.99
2023-01-10T05:30:36.257Z,2.99
2023-01-10T05:31:38.133Z,2.98
2023-01-10T05:32:40.293Z,2.98
2023-01-10T05:33:49.494Z,2.97
2023-01-10T05:34:51.384Z,2.97
2023-01-10T05:35:53.380Z,2.97
2023-01-10T05:36:55.288Z,2.96
2023-01-10T05:37:57.081Z,2.96
2023-01-10T05:38:58.902Z,2.96
2023-01-10T05:40:00.923Z,2.97
2023-01-10T05:41:03.067Z,2.97
2023-01-10T05:42:05.835Z,2.97
2023-01-10T05:43:08.344Z,2.97
2023-01-10T05:44:10.929Z,2.97
2023-01-10T05:45:13.135Z,2.95
2023-01-10T05:46:15.712Z,2.94
2023-01-10T05:47:17.803Z,2.94
2023-01-10T05:48:19.738Z,2.94
2023-01-10T05:49:21.569Z,2.96
2023-01-10T05:50:23.509Z,2.96
2023-01-10T05:51:25.635Z,2.96
2023-01-10T05:52:27.512Z,2.97
2023-01-10T05:53:29.879Z,2.99
2023-01-10T05:54:31.710Z,2.99
2023-01-10T05:55:34.373Z,2.98
2023-01-10T05:56:36.529Z,2.97
2023-01-10T05:57:38.396Z,2.96
2023-01-10T05:58:40.220Z,2.95
2023-01-10T05:59:42.163Z,2.93
2023-01-10T06:00:43.911Z,2.93
2023-01-10T06:01:46.199Z,2.91
2023-01-10T06:02:48.088Z,2.90
2023-01-10T06:03:50.516Z,2.89
2023-01-10T06:04:55.260Z,2.88
2023-01-10T06:05:57.656Z,2.88
2023-01-10T06:06:59.591Z,2.86
2023-01-10T06:08:01.653Z,2.85
2023-01-10T06:09:03.890Z,2.83
2023-01-10T06:10:06.322Z,2.82
2023-01-10T06:11:08.314Z,2.82
2023-01-10T06:12:10.049Z,2.83
2023-01-10T06:13:12.420Z,2.86
2023-01-10T06:14:19.484Z,2.87
2023-01-10T06:15:21.678Z,2.90
2023-01-10T06:16:24.244Z,2.93
2023-01-10T06:17:26.246Z,2.96
2023-01-10T06:18:28.082Z,2.98
2023-01-10T06:19:29.870Z,3.01
2023-01-10T06:20:32.231Z,3.04
2023-01-10T06:21:34.046Z,3.05
2023-01-10T06:22:35.960Z,3.05
2023-01-10T06:23:37.877Z,3.03
2023-01-10T06:24:39.696Z,3.01
2023-01-10T06:25:41.882Z,3.00
2023-01-10T06:26:43.685Z,2.98
2023-01-10T06:27:45.514Z,2.99
2023-01-10T06:28:47.521Z,3.00
2023-01-10T06:29:49.282Z,3.00
2023-01-10T06:30:51.187Z,3.01
2023-01-10T06:31:53.018Z,3.02
2023-01-10T06:33:02.223Z,3.02
2023-01-10T06:34:04.230Z,3.02
2023-01-10T06:35:06.925Z,3.01
2023-01-10T06:36:09.086Z,3.01
2023-01-10T06:37:10.941Z,3.00
2023-01-10T06:38:12.724Z,2.98
2023-01-10T06:39:14.547Z,2.98
2023-01-10T06:40:16.925Z,2.97
2023-01-10T06:41:18.981Z,2.97
2023-01-10T06:42:20.746Z,2.97
2023-01-10T06:43:25.792Z,2.96
2023-01-10T06:44:27.787Z,2.96
2023-01-10T06:45:30.474Z,2.97
2023-01-10T06:46:32.486Z,2.97
2023-01-10T06:47:34.511Z,2.98
2023-01-10T06:48:37.606Z,2.99
2023-01-10T06:49:39.371Z,3.01
2023-01-10T06:50:41.276Z,3.03
2023-01-10T06:51:43.083Z,3.05
2023-01-10T06:52:44.897Z,3.07
2023-01-10T06:53:47.575Z,3.09
2023-01-10T06:54:49.403Z,3.10
2023-01-10T06:55:51.219Z,3.11
2023-01-10T06:56:53.096Z,3.13
2023-01-10T06:58:00.218Z,3.14
2023-01-10T06:59:02.100Z,3.16
2023-01-10T07:00:06.403Z,3.19
2023-01-10T07:01:14.973Z,3.20
2023-01-10T07:02:16.913Z,3.20
2023-01-10T07:03:19.136Z,3.19
2023-01-10T07:04:21.016Z,3.19
2023-01-10T07:05:22.959Z,3.17
2023-01-10T07:06:24.861Z,3.16
2023-01-10T07:07:26.725Z,3.14
2023-01-10T07:08:29.073Z,3.13
2023-01-10T07:09:31.087Z,3.11
2023-01-10T07:10:33.194Z,3.08
2023-01-10T07:11:35.793Z,3.06
2023-01-10T07:12:37.909Z,3.05
2023-01-10T07:13:40.984Z,3.03
2023-01-10T07:14:43.096Z,3.01
2023-01-10T07:15:44.906Z,2.98
2023-01-10T07:16:46.954Z,2.96
2023-01-10T07:17:50.040Z,2.94
2023-01-10T07:19:07.172Z,2.91
2023-01-10T07:20:10.187Z,2.88
2023-01-10T07:21:12.463Z,2.86
2023-01-10T07:22:14.489Z,2.86
2023-01-10T07:23:16.467Z,2.85
2023-01-10T07:24:19.072Z,2.84
2023-01-10T07:25:21.040Z,2.84
2023-01-10T07:26:24.370Z,2.85
2023-01-10T07:27:26.297Z,2.85
2023-01-10T07:28:28.221Z,2.85
2023-01-10T07:29:30.194Z,2.84
2023-01-10T07:30:32.178Z,2.83
2023-01-10T07:31:34.266Z,2.83
2023-01-10T07:32:36.369Z,2.80
2023-01-10T07:33:38.256Z,2.79
2023-01-10T07:34:40.375Z,2.79
2023-01-10T07:35:42.420Z,2.80
2023-01-10T07:36:44.319Z,2.79
2023-01-10T07:37:46.425Z,2.80
2023-01-10T07:38:48.519Z,2.79
2023-01-10T07:39:50.328Z,2.80
2023-01-10T07:40:52.544Z,2.81
2023-01-10T07:41:55.377Z,2.82
2023-01-10T07:42:58.889Z,2.82
2023-01-10T07:44:00.707Z,2.83
2023-01-10T07:45:02.522Z,2.84
2023-01-10T07:46:09.696Z,2.87
2023-01-10T07:47:11.648Z,2.87
2023-01-10T07:48:14.199Z,2.90
2023-01-10T07:49:16.656Z,2.90
2023-01-10T07:50:46.670Z,2.91
2023-01-10T07:51:51.771Z,2.90
2023-01-10T07:52:54.577Z,2.91
2023-01-10T07:53:56.422Z,2.94
2023-01-10T07:54:58.227Z,2.95
2023-01-10T07:56:03.362Z,2.95
2023-01-10T07:57:05.382Z,2.95
2023-01-10T07:58:10.645Z,2.95
2023-01-10T07:59:12.368Z,2.97
2023-01-10T08:00:16.259Z,2.97
2023-01-10T08:01:19.703Z,2.99
2023-01-10T08:02:22.119Z,3.00
2023-01-10T08:03:24.993Z,2.99
2023-01-10T08:04:27.195Z,2.99
2023-01-10T08:05:29.464Z,3.00
2023-01-10T08:06:32.287Z,3.01
2023-01-10T08:07:34.232Z,3.02
2023-01-10T08:08:36.220Z,3.03
2023-01-10T08:09:37.972Z,3.02
2023-01-10T08:10:40.627Z,3.03
2023-01-10T08:11:43.102Z,3.03
2023-01-10T08:12:45.969Z,3.02
2023-01-10T08:13:48.042Z,3.01
2023-01-10T08:14:50.794Z,2.98
2023-01-10T08:15:53.144Z,2.97
2023-01-10T08:16:55.072Z,2.95
2023-01-10T08:18:03.427Z,2.94
2023-01-10T08:19:07.304Z,2.92
2023-01-10T08:20:09.962Z,2.91
2023-01-10T08:21:12.289Z,2.90
2023-01-10T08:22:14.515Z,2.90
2023-01-10T08:23:17.104Z,2.90
2023-01-10T08:24:19.192Z,2.89
2023-01-10T08:25:21.069Z,2.89
2023-01-10T08:26:22.913Z,2.89
2023-01-10T08:27:24.917Z,2.88
2023-01-10T08:28:26.767Z,2.86
2023-01-10T08:29:29.718Z,2.86
2023-01-10T08:30:31.629Z,2.87
2023-01-10T08:31:33.472Z,2.87
2023-01-10T08:32:35.881Z,2.86
2023-01-10T08:33:41.994Z,2.87
2023-01-10T08:34:43.840Z,2.88
2023-01-10T08:35:45.842Z,2.89
2023-01-10T08:36:52.482Z,2.89
2023-01-10T08:37:58.133Z,2.88
2023-01-10T08:38:59.921Z,2.89
2023-01-10T08:40:02.557Z,2.89
2023-01-10T08:41:04.806Z,2.89
2023-01-10T08:42:06.681Z,2.89
2023-01-10T08:43:12.622Z,2.89
2023-01-10T08:44:15.801Z,2.89
2023-01-10T08:45:17.706Z,2.89
2023-01-10T08:46:20.617Z,2.90
2023-01-10T08:47:22.862Z,2.90
2023-01-10T08:48:24.748Z,2.91
2023-01-10T08:49:26.496Z,2.93
2023-01-10T08:50:28.727Z,2.94
2023-01-10T08:51:30.712Z,2.95
2023-01-10T08:52:32.519Z,2.95
2023-01-10T08:53:35.564Z,2.95
2023-01-10T08:54:37.902Z,2.94
2023-01-10T08:55:39.783Z,2.94
2023-01-10T08:56:41.753Z,2.95
2023-01-10T08:57:43.867Z,2.95
2023-01-10T08:58:46.002Z,2.96
2023-01-10T08:59:48.004Z,2.97
2023-01-10T09:00:50.543Z,2.98
2023-01-10T09:01:52.627Z,2.99
2023-01-10T09:02:54.519Z,3.00
2023-01-10T09:03:57.809Z,3.01
2023-01-10T09:05:00.045Z,3.03
2023-01-10T09:06:02.957Z,3.06
2023-01-10T09:07:05.153Z,3.08
2023-01-10T09:08:08.158Z,3.08
2023-01-10T09:09:10.421Z,3.07
2023-01-10T09:10:13.239Z,3.08
2023-01-10T09:11:15.124Z,3.08
2023-01-10T09:12:35.639Z,3.07
2023-01-10T09:13:37.708Z,3.07
2023-01-10T09:14:39.567Z,3.06
2023-01-10T09:15:43.631Z,3.05
2023-01-10T09:16:46.519Z,3.06
2023-01-10T09:17:49.996Z,3.06
2023-01-10T09:18:51.860Z,3.08
2023-01-10T09:19:53.898Z,3.10
2023-01-10T09:20:55.871Z,3.10
2023-01-10T09:21:57.782Z,3.11
2023-01-10T09:23:04.522Z,3.11
2023-01-10T09:24:07.448Z,3.12
2023-01-10T09:25:09.753Z,3.12
2023-01-10T09:26:11.619Z,3.13
2023-01-10T09:27:13.431Z,3.12
2023-01-10T09:28:15.908Z,3.12
2023-01-10T09:29:17.773Z,3.14
2023-01-10T09:30:19.734Z,3.16
2023-01-10T09:31:21.817Z,3.16
2023-01-10T09:32:24.229Z,3.18
2023-01-10T09:33:28.076Z,3.20
2023-01-10T09:34:31.988Z,3.21
2023-01-10T09:35:37.483Z,3.20
2023-01-10T09:36:39.316Z,3.21
2023-01-10T09:37:41.063Z,3.22
2023-01-10T09:38:43.482Z,3.24
2023-01-10T09:39:45.342Z,3.25
2023-01-10T09:41:06.462Z,3.24
2023-01-10T09:42:17.571Z,3.25
2023-01-10T09:43:37.767Z,3.26
2023-01-10T09:44:58.456Z,3.28
2023-01-10T09:46:06.630Z,3.31
2023-01-10T09:47:45.395Z,3.32
2023-01-10T09:48:53.985Z,3.32
2023-01-10T09:50:10.152Z,3.35
2023-01-10T09:51:41.625Z,3.36
2023-01-10T09:52:53.386Z,3.36
2023-01-10T09:54:11.097Z,3.39
2023-01-10T09:55:31.434Z,3.40
2023-01-10T09:56:34.621Z,3.39
2023-01-10T09:57:36.514Z,3.41
2023-01-10T09:58:39.325Z,3.43
2023-01-10T09:59:43.041Z,3.45
2023-01-10T10:00:55.678Z,3.48
2023-01-10T10:02:27.875Z,3.52
2023-01-10T10:03:41.446Z,3.54
2023-01-10T10:05:08.359Z,3.55
2023-01-10T10:06:13.765Z,3.55
2023-01-10T10:07:17.836Z,3.54
2023-01-10T10:08:21.294Z,3.55
2023-01-10T10:09:30.272Z,3.55
2023-01-10T10:10:41.322Z,3.56
2023-01-10T10:12:01.719Z,3.55
2023-01-10T10:13:27.569Z,3.56
2023-01-10T10:14:51.514Z,3.57
2023-01-10T10:16:10.190Z,3.61
2023-01-10T10:17:31.960Z,3.63
2023-01-10T10:19:10.742Z,3.63
2023-01-10T10:20:36.943Z,3.64
2023-01-10T10:21:57.447Z,3.62
2023-01-10T10:23:08.624Z,3.63
2023-01-10T10:24:21.587Z,3.61
2023-01-10T10:25:42.367Z,3.62
2023-01-10T10:27:16.232Z,3.64
2023-01-10T10:28:32.007Z,3.65
2023-01-10T10:29:33.760Z,3.67
2023-01-10T10:30:49.244Z,3.68
2023-01-10T10:32:24.199Z,3.70
2023-01-10T10:33:42.453Z,3.71
2023-01-10T10:34:54.321Z,3.73
2023-01-10T10:36:08.767Z,3.75
2023-01-10T10:37:35.233Z,3.78
2023-01-10T10:38:46.534Z,3.82
2023-01-10T10:40:00.965Z,3.85
2023-01-10T10:41:04.181Z,3.89
2023-01-10T10:42:13.651Z,3.90
2023-01-10T10:43:21.748Z,3.92
2023-01-10T10:44:43.643Z,3.93
2023-01-10T10:45:59.102Z,3.94
2023-01-10T10:47:01.360Z,3.94
2023-01-10T10:48:24.415Z,3.93
2023-01-10T10:49:43.045Z,3.93
2023-01-10T10:50:57.476Z,3.93
2023-01-10T10:52:06.125Z,3.94
2023-01-10T10:53:11.542Z,3.94
2023-01-10T10:54:15.223Z,3.96
2023-01-10T10:55:23.471Z,3.97
2023-01-10T10:56:27.658Z,3.99
2023-01-10T10:57:34.091Z,3.99
2023-01-10T10:58:40.270Z,3.98
2023-01-10T10:59:47.841Z,3.96
2023-01-10T11:00:49.909Z,3.96
2023-01-10T11:01:52.264Z,3.97
2023-01-10T11:03:00.470Z,3.98
2023-01-10T11:04:12.432Z,3.99
2023-01-10T11:05:22.191Z,4.00
2023-01-10T11:06:28.169Z,4.02
2023-01-10T11:07:35.084Z,4.05
2023-01-10T11:08:43.264Z,4.07
2023-01-10T11:09:47.673Z,4.10
2023-01-10T11:10:56.836Z,4.13
2023-01-10T11:11:59.500Z,4.15
2023-01-10T11:13:21.224Z,4.16
2023-01-10T11:14:48.641Z,4.19
2023-01-10T11:15:51.682Z,4.20
2023-01-10T11:16:53.484Z,4.23
2023-01-10T11:18:06.910Z,4.25
2023-01-10T11:19:10.291Z,4.26
2023-01-10T11:20:17.625Z,4.27
2023-01-10T11:21:22.089Z,4.26
2023-01-10T11:22:30.312Z,4.27
2023-01-10T11:23:38.145Z,4.27
2023-01-10T11:24:55.407Z,4.30
2023-01-10T11:25:57.515Z,4.37
2023-01-10T11:27:05.633Z,4.40
2023-01-10T11:28:18.365Z,4.42
2023-01-10T11:29:27.899Z,4.42
2023-01-10T11:30:36.769Z,4.43
2023-01-10T11:31:38.884Z,4.43
2023-01-10T11:32:53.509Z,4.43
2023-01-10T11:33:57.447Z,4.44
2023-01-10T11:35:03.763Z,4.46
2023-01-10T11:36:09.031Z,4.47
2023-01-10T11:37:16.799Z,4.47
2023-01-10T11:38:29.422Z,4.50
2023-01-10T11:39:32.838Z,4.53
2023-01-10T11:40:38.035Z,4.55
2023-01-10T11:41:39.915Z,4.54
2023-01-10T11:42:42.114Z,4.54
2023-01-10T11:43:44.193Z,4.53
2023-01-10T11:44:46.076Z,4.53
2023-01-10T11:46:00.577Z,4.50
2023-01-10T11:47:11.222Z,4.46
2023-01-10T11:48:48.159Z,4.43
2023-01-10T11:49:50.956Z,4.40
2023-01-10T11:50:56.147Z,4.40
2023-01-10T11:52:05.399Z,4.41
2023-01-10T11:53:42.878Z,4.45
2023-01-10T11:54:45.333Z,4.47
2023-01-10T11:55:49.267Z,4.48
2023-01-10T11:57:07.379Z,4.50
2023-01-10T11:58:15.149Z,4.51
2023-01-10T11:59:19.344Z,4.51
2023-01-10T12:00:22.199Z,4.49
2023-01-10T12:01:42.606Z,4.49
2023-01-10T12:02:45.990Z,4.48
2023-01-10T12:03:48.452Z,4.48
2023-01-10T12:04:53.180Z,4.48
2023-01-10T12:06:01.523Z,4.49
2023-01-10T12:07:09.830Z,4.48
2023-01-10T12:08:31.097Z,4.49
2023-01-10T12:09:34.197Z,4.50
2023-01-10T12:10:36.619Z,4.50
2023-01-10T12:11:38.506Z,4.51
2023-01-10T12:12:58.086Z,4.48
2023-01-10T12:14:02.177Z,4.47
2023-01-10T12:15:31.028Z,4.45
2023-01-10T12:16:34.882Z,4.42
2023-01-10T12:17:38.118Z,4.39
2023-01-10T12:18:40.126Z,4.36
2023-01-10T12:19:42.005Z,4.34
2023-01-10T12:20:51.931Z,4.33
2023-01-10T12:21:58.267Z,4.33
2023-01-10T12:23:17.663Z,4.33
2023-01-10T12:24:33.042Z,4.32
2023-01-10T12:25:40.026Z,4.30
2023-01-10T12:26:43.499Z,4.28
2023-01-10T12:27:50.288Z,4.27
2023-01-10T12:28:58.737Z,4.26
2023-01-10T12:30:16.549Z,4.24
2023-01-10T12:31:22.196Z,4.23
2023-01-10T12:32:38.270Z,4.22
2023-01-10T12:33:49.188Z,4.22
2023-01-10T12:35:01.866Z,4.22
2023-01-10T12:36:44.894Z,4.22
2023-01-10T12:37:59.146Z,4.22
2023-01-10T12:39:10.034Z,4.21
2023-01-10T12:40:36.530Z,4.21
2023-01-10T12:42:24.319Z,4.21
2023-01-10T12:44:00.656Z,4.21
2023-01-10T12:45:27.141Z,4.24
2023-01-10T12:47:05.164Z,4.24
2023-01-10T12:48:08.375Z,4.26
2023-01-10T12:49:36.739Z,4.25
2023-01-10T12:50:46.355Z,4.26
2023-01-10T12:51:51.852Z,4.28
2023-01-10T12:53:23.342Z,4.27
2023-01-10T12:54:29.570Z,4.29
2023-01-10T12:55:42.567Z,4.30
2023-01-10T12:56:47.344Z,4.30
2023-01-10T12:57:58.671Z,4.30
2023-01-10T12:59:11.288Z,4.31
2023-01-10T13:00:21.268Z,4.30
2023-01-10T13:01:36.626Z,4.30
2023-01-10T13:02:44.187Z,4.31
2023-01-10T13:03:55.829Z,4.31
2023-01-10T13:05:03.164Z,4.31
2023-01-10T13:06:05.718Z,4.31
2023-01-10T13:07:12.873Z,4.33
2023-01-10T13:08:19.725Z,4.31
2023-01-10T13:09:25.604Z,4.31
2023-01-10T13:10:31.034Z,4.31
2023-01-10T13:11:45.086Z,4.30
2023-01-10T13:13:15.342Z,4.31
2023-01-10T13:14:25.204Z,4.32
2023-01-10T13:15:27.089Z,4.34
2023-01-10T13:17:14.724Z,4.35
2023-01-10T13:18:29.418Z,4.39
2023-01-10T13:19:31.284Z,4.40
2023-01-10T13:20:41.496Z,4.39
2023-01-10T13:21:43.750Z,4.37
2023-01-10T13:22:58.743Z,4.32
2023-01-10T13:24:02.692Z,4.29
2023-01-10T13:25:05.813Z,4.27
2023-01-10T13:26:09.713Z,4.25
2023-01-10T13:27:20.606Z,4.24
2023-01-10T13:28:28.655Z,4.21
2023-01-10T13:29:40.954Z,4.21
2023-01-10T13:30:42.871Z,4.20
2023-01-10T13:31:47.168Z,4.18
2023-01-10T13:33:01.886Z,4.17
2023-01-10T13:34:16.678Z,4.15
2023-01-10T13:35:20.200Z,4.12
2023-01-10T13:36:27.637Z,4.12
2023-01-10T13:37:39.146Z,4.11
2023-01-10T13:38:55.921Z,4.10
2023-01-10T13:40:01.199Z,4.09
2023-01-10T13:41:29.705Z,4.10
2023-01-10T13:42:53.732Z,4.13
2023-01-10T13:44:22.221Z,4.16
2023-01-10T13:45:29.502Z,4.15
2023-01-10T13:46:31.629Z,4.15
2023-01-10T13:47:39.638Z,4.15
2023-01-10T13:49:03.769Z,4.17
2023-01-10T13:50:24.123Z,4.19
2023-01-10T13:51:31.217Z,4.20
2023-01-10T13:52:33.557Z,4.19
2023-01-10T13:53:35.359Z,4.17
2023-01-10T13:54:37.228Z,4.15
2023-01-10T13:55:39.066Z,4.12
2023-01-10T13:56:43.532Z,4.10
2023-01-10T13:58:09.407Z,4.09
2023-01-10T13:59:40.937Z,4.08
2023-01-10T14:01:12.184Z,4.10
2023-01-10T14:02:32.100Z,4.10
2023-01-10T14:03:56.192Z,4.10
2023-01-10T14:05:03.475Z,4.08
2023-01-10T14:06:29.139Z,4.06
2023-01-10T14:07:55.045Z,4.03
2023-01-10T14:09:02.403Z,4.00
2023-01-10T14:10:09.431Z,3.97
2023-01-10T14:11:13.718Z,3.96
2023-01-10T14:12:21.917Z,3.96
2023-01-10T14:13:23.845Z,3.96
2023-01-10T14:14:33.897Z,3.95
2023-01-10T14:15:43.753Z,3.96
2023-01-10T14:16:52.054Z,3.96
2023-01-10T14:17:57.875Z,3.94
2023-01-10T14:19:02.396Z,3.92
2023-01-10T14:20:10.703Z,3.88
2023-01-10T14:21:25.780Z,3.85
2023-01-10T14:22:38.284Z,3.80
2023-01-10T14:23:48.423Z,3.77
2023-01-10T14:24:53.398Z,3.77
2023-01-10T14:25:58.323Z,3.77
2023-01-10T14:27:03.632Z,3.77
2023-01-10T14:28:28.575Z,3.78
2023-01-10T14:29:34.033Z,3.81
2023-01-10T14:30:40.397Z,3.81
2023-01-10T14:31:47.848Z,3.82
2023-01-10T14:32:57.719Z,3.81
2023-01-10T14:34:03.031Z,3.77
2023-01-10T14:35:09.861Z,3.77
2023-01-10T14:36:25.545Z,3.76
2023-01-10T14:37:38.529Z,3.76
2023-01-10T14:38:43.793Z,3.77
2023-01-10T14:39:48.291Z,3.80
2023-01-10T14:41:07.370Z,3.79
2023-01-10T14:42:18.435Z,3.80
2023-01-10T14:43:26.552Z,3.79
2023-01-10T14:44:44.446Z,3.79
2023-01-10T14:46:04.450Z,3.75
2023-01-10T14:47:31.502Z,3.72
2023-01-10T14:48:40.415Z,3.71
2023-01-10T14:49:51.412Z,3.68
2023-01-10T14:51:20.874Z,3.66
2023-01-10T14:52:25.409Z,3.66
2023-01-10T14:53:30.496Z,3.67
2023-01-10T14:54:32.402Z,3.68
2023-01-10T14:55:34.285Z,3.68
2023-01-10T14:56:40.393Z,3.67
2023-01-10T14:57:56.251Z,3.67
2023-01-10T14:58:58.181Z,3.64